sensor_id;sensor_type;location;lat;lon;timestamp;temperature;humidity
14769;DHT22;7476;49.404;11.152;2023-05-10T00:00:20;14.10;99.90
14769;DHT22;7476;49.404;11.152;2023-05-10T00:02:48;14.10;99.90
14769;DHT22;7476;49.404;11.152;2023-05-10T00:05:14;14.10;99.90
14769;DHT22;7476;49.404;11.152;2023-05-10T00:07:41;14.00;99.90
14769;DHT22;7476;49.404;11.152;2023-05-10T00:10:10;13.90;99.90
14769;DHT22;7476;49.404;11.152;2023-05-10T00:12:38;13.80;99.90
14769;DHT22;7476;49.404;11.152;2023-05-10T00:15:06;13.70;99.90
14769;DHT22;7476;49.404;11.152;2023-05-10T00:17:33;13.50;99.90
14769;DHT22;7476;49.404;11.152;2023-05-10T00:20:00;13.40;99.90
14769;DHT22;7476;49.404;11.152;2023-05-10T00:22:26;13.30;99.90
14769;DHT22;7476;49.404;11.152;2023-05-10T00:24:53;13.20;99.90
14769;DHT22;7476;49.404;11.152;2023-05-10T00:27:20;13.10;99.90
14769;DHT22;7476;49.404;11.152;2023-05-10T00:29:47;13.00;99.90
14769;DHT22;7476;49.404;11.152;2023-05-10T00:32:14;13.00;99.90
14769;DHT22;7476;49.404;11.152;2023-05-10T00:34:41;12.90;99.90
14769;DHT22;7476;49.404;11.152;2023-05-10T00:37:08;12.80;99.90
14769;DHT22;7476;49.404;11.152;2023-05-10T00:39:34;12.70;99.90
14769;DHT22;7476;49.404;11.152;2023-05-10T00:42:01;12.70;99.90
14769;DHT22;7476;49.404;11.152;2023-05-10T00:44:29;12.60;99.90
14769;DHT22;7476;49.404;11.152;2023-05-10T00:46:58;12.50;99.90
14769;DHT22;7476;49.404;11.152;2023-05-10T00:49:25;12.50;99.90
14769;DHT22;7476;49.404;11.152;2023-05-10T00:51:52;12.50;99.90
14769;DHT22;7476;49.404;11.152;2023-05-10T00:54:19;12.50;99.90
14769;DHT22;7476;49.404;11.152;2023-05-10T00:56:46;12.50;99.90
14769;DHT22;7476;49.404;11.152;2023-05-10T00:59:14;12.50;99.90
14769;DHT22;7476;49.404;11.152;2023-05-10T01:01:41;12.40;99.90
14769;DHT22;7476;49.404;11.152;2023-05-10T01:04:10;12.50;99.90
14769;DHT22;7476;49.404;11.152;2023-05-10T01:06:38;12.60;99.90
14769;DHT22;7476;49.404;11.152;2023-05-10T01:09:04;12.60;99.90
14769;DHT22;7476;49.404;11.152;2023-05-10T01:11:31;12.60;99.90
14769;DHT22;7476;49.404;11.152;2023-05-10T01:13:58;12.60;99.90
14769;DHT22;7476;49.404;11.152;2023-05-10T01:16:26;12.70;99.90
14769;DHT22;7476;49.404;11.152;2023-05-10T01:18:54;12.70;99.90
14769;DHT22;7476;49.404;11.152;2023-05-10T01:21:27;12.70;99.90
14769;DHT22;7476;49.404;11.152;2023-05-10T01:24:14;12.80;99.90
14769;DHT22;7476;49.404;11.152;2023-05-10T01:27:02;12.80;99.90
14769;DHT22;7476;49.404;11.152;2023-05-10T01:29:51;12.80;99.90
14769;DHT22;7476;49.404;11.152;2023-05-10T01:32:32;12.70;99.90
14769;DHT22;7476;49.404;11.152;2023-05-10T01:35:04;12.70;99.90
14769;DHT22;7476;49.404;11.152;2023-05-10T01:37:39;12.60;99.90
14769;DHT22;7476;49.404;11.152;2023-05-10T01:40:13;12.60;99.90
14769;DHT22;7476;49.404;11.152;2023-05-10T01:42:48;12.60;99.90
14769;DHT22;7476;49.404;11.152;2023-05-10T01:45:21;12.70;99.90
14769;DHT22;7476;49.404;11.152;2023-05-10T01:47:58;12.70;99.90
14769;DHT22;7476;49.404;11.152;2023-05-10T01:50:30;12.70;99.90
14769;DHT22;7476;49.404;11.152;2023-05-10T01:52:59;12.70;99.90
14769;DHT22;7476;49.404;11.152;2023-05-10T01:55:29;12.70;99.90
14769;DHT22;7476;49.404;11.152;2023-05-10T01:58:05;12.70;99.90
14769;DHT22;7476;49.404;11.152;2023-05-10T02:00:34;12.70;99.90
14769;DHT22;7476;49.404;11.152;2023-05-10T02:03:06;12.70;99.90
14769;DHT22;7476;49.404;11.152;2023-05-10T02:05:34;12.80;99.90
14769;DHT22;7476;49.404;11.152;2023-05-10T02:08:04;12.80;99.90
14769;DHT22;7476;49.404;11.152;2023-05-10T02:10:32;12.80;99.90
14769;DHT22;7476;49.404;11.152;2023-05-10T02:13:00;12.90;99.90
14769;DHT22;7476;49.404;11.152;2023-05-10T02:15:28;12.90;99.90
14769;DHT22;7476;49.404;11.152;2023-05-10T02:17:56;12.90;99.90
14769;DHT22;7476;49.404;11.152;2023-05-10T02:20:25;12.80;99.90
14769;DHT22;7476;49.404;11.152;2023-05-10T02:22:55;12.90;99.90
14769;DHT22;7476;49.404;11.152;2023-05-10T02:25:23;12.90;99.90
14769;DHT22;7476;49.404;11.152;2023-05-10T02:27:51;12.90;99.90
14769;DHT22;7476;49.404;11.152;2023-05-10T02:30:21;12.90;99.90
14769;DHT22;7476;49.404;11.152;2023-05-10T02:32:49;12.80;99.90
14769;DHT22;7476;49.404;11.152;2023-05-10T02:35:16;12.80;99.90
14769;DHT22;7476;49.404;11.152;2023-05-10T02:37:45;12.90;99.90
14769;DHT22;7476;49.404;11.152;2023-05-10T02:40:13;12.90;99.90
14769;DHT22;7476;49.404;11.152;2023-05-10T02:42:42;12.90;99.90
14769;DHT22;7476;49.404;11.152;2023-05-10T02:45:12;12.90;99.90
14769;DHT22;7476;49.404;11.152;2023-05-10T02:47:39;12.90;99.90
14769;DHT22;7476;49.404;11.152;2023-05-10T02:50:07;12.90;99.90
14769;DHT22;7476;49.404;11.152;2023-05-10T02:52:39;12.90;99.90
14769;DHT22;7476;49.404;11.152;2023-05-10T02:55:09;12.90;99.90
14769;DHT22;7476;49.404;11.152;2023-05-10T02:57:41;12.90;99.90
14769;DHT22;7476;49.404;11.152;2023-05-10T03:00:10;13.00;99.90
14769;DHT22;7476;49.404;11.152;2023-05-10T03:02:37;13.00;99.90
14769;DHT22;7476;49.404;11.152;2023-05-10T03:05:04;13.00;99.90
14769;DHT22;7476;49.404;11.152;2023-05-10T03:07:30;13.10;99.90
14769;DHT22;7476;49.404;11.152;2023-05-10T03:09:57;13.10;99.90
14769;DHT22;7476;49.404;11.152;2023-05-10T03:12:33;13.10;99.90
14769;DHT22;7476;49.404;11.152;2023-05-10T03:15:11;13.20;99.90
14769;DHT22;7476;49.404;11.152;2023-05-10T03:17:46;13.20;99.90
14769;DHT22;7476;49.404;11.152;2023-05-10T03:20:20;13.20;99.90
14769;DHT22;7476;49.404;11.152;2023-05-10T03:22:51;13.20;99.90
14769;DHT22;7476;49.404;11.152;2023-05-10T03:25:19;13.20;99.90
14769;DHT22;7476;49.404;11.152;2023-05-10T03:27:49;13.20;99.90
14769;DHT22;7476;49.404;11.152;2023-05-10T03:30:16;13.20;99.90
14769;DHT22;7476;49.404;11.152;2023-05-10T03:32:44;13.20;99.90
14769;DHT22;7476;49.404;11.152;2023-05-10T03:35:11;13.20;99.90
14769;DHT22;7476;49.404;11.152;2023-05-10T03:37:38;13.20;99.90
14769;DHT22;7476;49.404;11.152;2023-05-10T03:40:07;13.20;99.90
14769;DHT22;7476;49.404;11.152;2023-05-10T03:42:34;13.20;99.90
14769;DHT22;7476;49.404;11.152;2023-05-10T03:45:02;13.10;99.90
14769;DHT22;7476;49.404;11.152;2023-05-10T03:47:29;13.10;99.90
14769;DHT22;7476;49.404;11.152;2023-05-10T03:49:56;13.10;99.90
14769;DHT22;7476;49.404;11.152;2023-05-10T03:52:22;13.10;99.90
14769;DHT22;7476;49.404;11.152;2023-05-10T03:54:49;13.10;99.90
14769;DHT22;7476;49.404;11.152;2023-05-10T03:57:16;13.10;99.90
14769;DHT22;7476;49.404;11.152;2023-05-10T03:59:42;13.10;99.90
14769;DHT22;7476;49.404;11.152;2023-05-10T04:02:10;13.10;99.90
14769;DHT22;7476;49.404;11.152;2023-05-10T04:04:37;13.10;99.90
14769;DHT22;7476;49.404;11.152;2023-05-10T04:07:03;13.10;99.90
14769;DHT22;7476;49.404;11.152;2023-05-10T04:09:30;13.10;99.90
14769;DHT22;7476;49.404;11.152;2023-05-10T04:11:58;13.10;99.90
14769;DHT22;7476;49.404;11.152;2023-05-10T04:14:25;13.00;99.90
14769;DHT22;7476;49.404;11.152;2023-05-10T04:16:52;13.10;99.90
14769;DHT22;7476;49.404;11.152;2023-05-10T04:19:20;13.00;99.90
14769;DHT22;7476;49.404;11.152;2023-05-10T04:21:46;13.10;99.90
14769;DHT22;7476;49.404;11.152;2023-05-10T04:24:13;13.00;99.90
14769;DHT22;7476;49.404;11.152;2023-05-10T04:26:40;13.00;99.90
14769;DHT22;7476;49.404;11.152;2023-05-10T04:29:06;13.10;99.90
14769;DHT22;7476;49.404;11.152;2023-05-10T04:31:33;13.00;99.90
14769;DHT22;7476;49.404;11.152;2023-05-10T04:34:01;13.00;99.90
14769;DHT22;7476;49.404;11.152;2023-05-10T04:36:29;13.00;99.90
14769;DHT22;7476;49.404;11.152;2023-05-10T04:38:57;13.00;99.90
14769;DHT22;7476;49.404;11.152;2023-05-10T04:41:24;13.00;99.90
14769;DHT22;7476;49.404;11.152;2023-05-10T04:43:51;13.00;99.90
14769;DHT22;7476;49.404;11.152;2023-05-10T04:46:18;13.00;99.90
14769;DHT22;7476;49.404;11.152;2023-05-10T04:48:44;13.00;99.90
14769;DHT22;7476;49.404;11.152;2023-05-10T04:51:11;13.00;99.90
14769;DHT22;7476;49.404;11.152;2023-05-10T04:53:39;13.00;99.90
14769;DHT22;7476;49.404;11.152;2023-05-10T04:56:06;13.10;99.90
14769;DHT22;7476;49.404;11.152;2023-05-10T04:58:33;13.10;99.90
14769;DHT22;7476;49.404;11.152;2023-05-10T05:01:05;13.10;99.90
14769;DHT22;7476;49.404;11.152;2023-05-10T05:03:32;13.20;99.90
14769;DHT22;7476;49.404;11.152;2023-05-10T05:05:59;13.20;99.90
14769;DHT22;7476;49.404;11.152;2023-05-10T05:08:26;13.20;99.90
14769;DHT22;7476;49.404;11.152;2023-05-10T05:10:54;13.20;99.90
14769;DHT22;7476;49.404;11.152;2023-05-10T05:13:21;13.20;99.90
14769;DHT22;7476;49.404;11.152;2023-05-10T05:15:47;13.30;99.90
14769;DHT22;7476;49.404;11.152;2023-05-10T05:18:14;13.30;99.90
14769;DHT22;7476;49.404;11.152;2023-05-10T05:20:41;13.20;99.90
14769;DHT22;7476;49.404;11.152;2023-05-10T05:23:07;13.20;99.90
14769;DHT22;7476;49.404;11.152;2023-05-10T05:25:34;13.20;99.90
14769;DHT22;7476;49.404;11.152;2023-05-10T05:28:02;13.10;99.90
14769;DHT22;7476;49.404;11.152;2023-05-10T05:30:29;13.20;99.90
14769;DHT22;7476;49.404;11.152;2023-05-10T05:32:55;13.20;99.90
14769;DHT22;7476;49.404;11.152;2023-05-10T05:35:22;13.20;99.90
14769;DHT22;7476;49.404;11.152;2023-05-10T05:37:49;13.30;99.90
14769;DHT22;7476;49.404;11.152;2023-05-10T05:40:15;13.40;99.90
14769;DHT22;7476;49.404;11.152;2023-05-10T05:42:42;13.50;99.90
14769;DHT22;7476;49.404;11.152;2023-05-10T05:45:10;13.50;99.90
14769;DHT22;7476;49.404;11.152;2023-05-10T05:47:38;13.70;99.90
14769;DHT22;7476;49.404;11.152;2023-05-10T05:50:05;13.80;99.90
14769;DHT22;7476;49.404;11.152;2023-05-10T05:52:32;14.00;99.90
14769;DHT22;7476;49.404;11.152;2023-05-10T05:54:59;14.10;99.90
14769;DHT22;7476;49.404;11.152;2023-05-10T05:57:25;14.10;99.90
14769;DHT22;7476;49.404;11.152;2023-05-10T05:59:52;14.10;99.90
14769;DHT22;7476;49.404;11.152;2023-05-10T06:02:20;14.10;99.90
14769;DHT22;7476;49.404;11.152;2023-05-10T06:04:47;14.00;99.90
14769;DHT22;7476;49.404;11.152;2023-05-10T06:07:13;14.00;99.90
14769;DHT22;7476;49.404;11.152;2023-05-10T06:09:40;14.10;99.90
14769;DHT22;7476;49.404;11.152;2023-05-10T06:12:07;14.10;99.90
14769;DHT22;7476;49.404;11.152;2023-05-10T06:14:33;14.20;99.90
14769;DHT22;7476;49.404;11.152;2023-05-10T06:17:00;14.40;99.90
14769;DHT22;7476;49.404;11.152;2023-05-10T06:19:30;14.50;99.90
14769;DHT22;7476;49.404;11.152;2023-05-10T06:21:57;14.60;99.90
14769;DHT22;7476;49.404;11.152;2023-05-10T06:24:23;14.80;99.90
14769;DHT22;7476;49.404;11.152;2023-05-10T06:26:50;14.90;99.90
14769;DHT22;7476;49.404;11.152;2023-05-10T06:29:17;14.80;99.90
14769;DHT22;7476;49.404;11.152;2023-05-10T06:31:43;14.90;99.90
14769;DHT22;7476;49.404;11.152;2023-05-10T06:34:10;14.80;99.90
14769;DHT22;7476;49.404;11.152;2023-05-10T06:36:39;14.70;99.90
14769;DHT22;7476;49.404;11.152;2023-05-10T06:39:06;14.90;99.90
14769;DHT22;7476;49.404;11.152;2023-05-10T06:41:33;14.90;99.90
14769;DHT22;7476;49.404;11.152;2023-05-10T06:44:00;15.10;99.90
14769;DHT22;7476;49.404;11.152;2023-05-10T06:46:26;15.20;99.90
14769;DHT22;7476;49.404;11.152;2023-05-10T06:48:53;15.20;99.90
14769;DHT22;7476;49.404;11.152;2023-05-10T06:51:20;15.10;99.90
14769;DHT22;7476;49.404;11.152;2023-05-10T06:53:48;15.10;99.90
14769;DHT22;7476;49.404;11.152;2023-05-10T06:56:15;15.40;99.90
14769;DHT22;7476;49.404;11.152;2023-05-10T06:58:42;15.50;99.90
14769;DHT22;7476;49.404;11.152;2023-05-10T07:01:08;15.70;99.90
14769;DHT22;7476;49.404;11.152;2023-05-10T07:03:35;15.80;99.90
14769;DHT22;7476;49.404;11.152;2023-05-10T07:06:02;15.80;99.90
14769;DHT22;7476;49.404;11.152;2023-05-10T07:08:30;15.70;99.90
14769;DHT22;7476;49.404;11.152;2023-05-10T07:11:01;15.90;99.90
14769;DHT22;7476;49.404;11.152;2023-05-10T07:13:29;15.90;99.90
14769;DHT22;7476;49.404;11.152;2023-05-10T07:15:55;15.80;99.90
14769;DHT22;7476;49.404;11.152;2023-05-10T07:18:22;15.90;99.90
14769;DHT22;7476;49.404;11.152;2023-05-10T07:20:49;16.10;99.90
14769;DHT22;7476;49.404;11.152;2023-05-10T07:23:15;16.00;99.90
14769;DHT22;7476;49.404;11.152;2023-05-10T07:25:44;15.80;99.90
14769;DHT22;7476;49.404;11.152;2023-05-10T07:28:13;15.60;99.90
14769;DHT22;7476;49.404;11.152;2023-05-10T07:30:40;15.40;99.90
14769;DHT22;7476;49.404;11.152;2023-05-10T07:33:07;15.50;99.90
14769;DHT22;7476;49.404;11.152;2023-05-10T07:35:34;15.80;99.90
14769;DHT22;7476;49.404;11.152;2023-05-10T07:38:01;15.70;99.90
14769;DHT22;7476;49.404;11.152;2023-05-10T07:40:28;15.60;99.90
14769;DHT22;7476;49.404;11.152;2023-05-10T07:42:55;15.40;99.90
14769;DHT22;7476;49.404;11.152;2023-05-10T07:45:26;15.30;99.90
14769;DHT22;7476;49.404;11.152;2023-05-10T07:47:53;15.30;99.90
14769;DHT22;7476;49.404;11.152;2023-05-10T07:50:19;15.50;99.90
14769;DHT22;7476;49.404;11.152;2023-05-10T07:52:47;15.70;99.90
14769;DHT22;7476;49.404;11.152;2023-05-10T07:55:14;15.80;99.90
14769;DHT22;7476;49.404;11.152;2023-05-10T07:57:41;15.70;99.90
14769;DHT22;7476;49.404;11.152;2023-05-10T08:00:11;15.80;99.90
14769;DHT22;7476;49.404;11.152;2023-05-10T08:02:40;15.90;99.90
14769;DHT22;7476;49.404;11.152;2023-05-10T08:05:07;16.10;99.90
14769;DHT22;7476;49.404;11.152;2023-05-10T08:07:34;16.10;99.90
14769;DHT22;7476;49.404;11.152;2023-05-10T08:10:01;16.10;99.90
14769;DHT22;7476;49.404;11.152;2023-05-10T08:12:27;16.00;99.90
14769;DHT22;7476;49.404;11.152;2023-05-10T08:14:54;16.00;99.90
14769;DHT22;7476;49.404;11.152;2023-05-10T08:17:21;15.90;99.90
14769;DHT22;7476;49.404;11.152;2023-05-10T08:19:48;15.80;99.90
14769;DHT22;7476;49.404;11.152;2023-05-10T08:22:15;16.00;99.90
14769;DHT22;7476;49.404;11.152;2023-05-10T08:24:42;16.30;99.90
14769;DHT22;7476;49.404;11.152;2023-05-10T08:27:09;16.70;99.90
14769;DHT22;7476;49.404;11.152;2023-05-10T08:29:35;17.10;99.90
14769;DHT22;7476;49.404;11.152;2023-05-10T08:32:02;17.40;99.90
14769;DHT22;7476;49.404;11.152;2023-05-10T08:34:28;17.40;99.90
14769;DHT22;7476;49.404;11.152;2023-05-10T08:36:57;17.30;99.90
14769;DHT22;7476;49.404;11.152;2023-05-10T08:39:24;17.80;99.90
14769;DHT22;7476;49.404;11.152;2023-05-10T08:41:52;18.20;99.90
14769;DHT22;7476;49.404;11.152;2023-05-10T08:44:20;18.50;99.90
14769;DHT22;7476;49.404;11.152;2023-05-10T08:46:47;18.60;99.90
14769;DHT22;7476;49.404;11.152;2023-05-10T08:49:17;18.60;99.90
14769;DHT22;7476;49.404;11.152;2023-05-10T08:51:50;18.60;99.90
14769;DHT22;7476;49.404;11.152;2023-05-10T08:54:19;19.00;99.90
14769;DHT22;7476;49.404;11.152;2023-05-10T08:56:47;19.00;99.90
14769;DHT22;7476;49.404;11.152;2023-05-10T08:59:14;19.10;99.90
14769;DHT22;7476;49.404;11.152;2023-05-10T09:01:43;19.00;99.90
14769;DHT22;7476;49.404;11.152;2023-05-10T09:04:11;18.60;99.90
14769;DHT22;7476;49.404;11.152;2023-05-10T09:06:38;18.40;99.90
14769;DHT22;7476;49.404;11.152;2023-05-10T09:09:05;18.10;99.90
14769;DHT22;7476;49.404;11.152;2023-05-10T09:11:33;17.80;99.90
14769;DHT22;7476;49.404;11.152;2023-05-10T09:14:00;17.30;99.90
14769;DHT22;7476;49.404;11.152;2023-05-10T09:16:27;16.60;99.90
14769;DHT22;7476;49.404;11.152;2023-05-10T09:18:54;15.80;99.90
14769;DHT22;7476;49.404;11.152;2023-05-10T09:21:20;15.20;99.90
14769;DHT22;7476;49.404;11.152;2023-05-10T09:23:47;14.70;99.90
14769;DHT22;7476;49.404;11.152;2023-05-10T09:26:15;13.90;99.90
14769;DHT22;7476;49.404;11.152;2023-05-10T09:28:54;13.60;99.90
14769;DHT22;7476;49.404;11.152;2023-05-10T09:31:22;13.60;99.90
14769;DHT22;7476;49.404;11.152;2023-05-10T09:33:50;13.80;99.90
14769;DHT22;7476;49.404;11.152;2023-05-10T09:36:17;14.00;99.90
14769;DHT22;7476;49.404;11.152;2023-05-10T09:38:48;14.10;99.90
14769;DHT22;7476;49.404;11.152;2023-05-10T09:41:16;14.20;99.90
14769;DHT22;7476;49.404;11.152;2023-05-10T09:43:43;14.40;99.90
14769;DHT22;7476;49.404;11.152;2023-05-10T09:46:11;14.60;99.90
14769;DHT22;7476;49.404;11.152;2023-05-10T09:48:42;14.80;99.90
14769;DHT22;7476;49.404;11.152;2023-05-10T09:51:09;15.00;99.90
14769;DHT22;7476;49.404;11.152;2023-05-10T09:53:36;15.30;99.90
14769;DHT22;7476;49.404;11.152;2023-05-10T09:56:02;15.60;99.90
14769;DHT22;7476;49.404;11.152;2023-05-10T09:58:29;15.90;99.90
14769;DHT22;7476;49.404;11.152;2023-05-10T10:00:56;16.20;99.90
14769;DHT22;7476;49.404;11.152;2023-05-10T10:03:24;16.40;99.90
14769;DHT22;7476;49.404;11.152;2023-05-10T10:05:51;16.60;99.90
14769;DHT22;7476;49.404;11.152;2023-05-10T10:08:18;16.90;99.90
14769;DHT22;7476;49.404;11.152;2023-05-10T10:10:46;17.50;99.90
14769;DHT22;7476;49.404;11.152;2023-05-10T10:13:13;18.10;99.90
14769;DHT22;7476;49.404;11.152;2023-05-10T10:15:40;18.80;99.90
14769;DHT22;7476;49.404;11.152;2023-05-10T10:18:12;19.10;99.90
14769;DHT22;7476;49.404;11.152;2023-05-10T10:20:41;19.60;99.90
14769;DHT22;7476;49.404;11.152;2023-05-10T10:23:08;19.50;99.90
14769;DHT22;7476;49.404;11.152;2023-05-10T10:25:35;19.00;99.90
14769;DHT22;7476;49.404;11.152;2023-05-10T10:28:16;19.30;99.90
14769;DHT22;7476;49.404;11.152;2023-05-10T10:30:49;19.20;99.90
14769;DHT22;7476;49.404;11.152;2023-05-10T10:33:33;18.70;99.90
14769;DHT22;7476;49.404;11.152;2023-05-10T10:36:04;18.10;99.90
14769;DHT22;7476;49.404;11.152;2023-05-10T10:38:54;18.30;99.90
14769;DHT22;7476;49.404;11.152;2023-05-10T10:41:29;19.00;99.90
14769;DHT22;7476;49.404;11.152;2023-05-10T10:44:24;19.10;99.90
14769;DHT22;7476;49.404;11.152;2023-05-10T10:49:49;19.30;99.90
14769;DHT22;7476;49.404;11.152;2023-05-10T10:52:25;19.20;99.90
14769;DHT22;7476;49.404;11.152;2023-05-10T10:54:58;18.90;99.90
14769;DHT22;7476;49.404;11.152;2023-05-10T10:57:26;18.70;99.90
14769;DHT22;7476;49.404;11.152;2023-05-10T11:00:20;18.90;99.90
14769;DHT22;7476;49.404;11.152;2023-05-10T11:02:49;19.00;99.90
14769;DHT22;7476;49.404;11.152;2023-05-10T11:05:37;18.90;99.90
14769;DHT22;7476;49.404;11.152;2023-05-10T11:08:14;18.30;99.90
14769;DHT22;7476;49.404;11.152;2023-05-10T11:10:51;17.30;99.90
14769;DHT22;7476;49.404;11.152;2023-05-10T11:13:27;16.60;99.90
14769;DHT22;7476;49.404;11.152;2023-05-10T11:15:54;16.40;99.90
14769;DHT22;7476;49.404;11.152;2023-05-10T11:18:24;16.40;99.90
14769;DHT22;7476;49.404;11.152;2023-05-10T11:20:52;16.40;99.90
14769;DHT22;7476;49.404;11.152;2023-05-10T11:23:20;16.50;99.90
14769;DHT22;7476;49.404;11.152;2023-05-10T11:25:49;16.70;99.90
14769;DHT22;7476;49.404;11.152;2023-05-10T11:28:17;16.90;99.90
14769;DHT22;7476;49.404;11.152;2023-05-10T11:30:44;16.90;99.90
14769;DHT22;7476;49.404;11.152;2023-05-10T11:33:15;17.00;99.90
14769;DHT22;7476;49.404;11.152;2023-05-10T11:35:42;17.20;99.90
14769;DHT22;7476;49.404;11.152;2023-05-10T11:38:10;17.40;99.90
14769;DHT22;7476;49.404;11.152;2023-05-10T11:40:39;17.70;99.90
14769;DHT22;7476;49.404;11.152;2023-05-10T11:43:06;17.60;99.90
14769;DHT22;7476;49.404;11.152;2023-05-10T11:45:35;17.80;99.90
14769;DHT22;7476;49.404;11.152;2023-05-10T11:48:02;17.90;99.90
14769;DHT22;7476;49.404;11.152;2023-05-10T11:50:29;18.20;99.90
14769;DHT22;7476;49.404;11.152;2023-05-10T11:52:56;18.30;99.90
14769;DHT22;7476;49.404;11.152;2023-05-10T11:55:24;18.50;99.90
14769;DHT22;7476;49.404;11.152;2023-05-10T11:57:53;18.80;99.90
14769;DHT22;7476;49.404;11.152;2023-05-10T12:00:20;18.90;99.90
14769;DHT22;7476;49.404;11.152;2023-05-10T12:02:47;18.90;99.90
14769;DHT22;7476;49.404;11.152;2023-05-10T12:05:15;18.70;99.90
14769;DHT22;7476;49.404;11.152;2023-05-10T12:07:42;18.60;99.90
14769;DHT22;7476;49.404;11.152;2023-05-10T12:10:10;18.40;99.90
14769;DHT22;7476;49.404;11.152;2023-05-10T12:12:41;18.00;99.90
14769;DHT22;7476;49.404;11.152;2023-05-10T12:15:16;18.00;99.90
14769;DHT22;7476;49.404;11.152;2023-05-10T12:17:44;17.80;99.90
14769;DHT22;7476;49.404;11.152;2023-05-10T12:20:15;17.60;99.90
14769;DHT22;7476;49.404;11.152;2023-05-10T12:22:45;17.40;99.90
14769;DHT22;7476;49.404;11.152;2023-05-10T12:25:12;17.30;99.90
14769;DHT22;7476;49.404;11.152;2023-05-10T12:27:39;17.40;99.90
14769;DHT22;7476;49.404;11.152;2023-05-10T12:30:07;17.50;99.90
14769;DHT22;7476;49.404;11.152;2023-05-10T12:32:43;17.50;99.90
14769;DHT22;7476;49.404;11.152;2023-05-10T12:35:10;17.60;99.90
14769;DHT22;7476;49.404;11.152;2023-05-10T12:37:37;17.60;99.90
14769;DHT22;7476;49.404;11.152;2023-05-10T12:40:09;17.60;99.90
14769;DHT22;7476;49.404;11.152;2023-05-10T12:42:36;17.60;99.90
14769;DHT22;7476;49.404;11.152;2023-05-10T12:45:05;17.60;99.90
14769;DHT22;7476;49.404;11.152;2023-05-10T12:47:32;17.80;99.90
14769;DHT22;7476;49.404;11.152;2023-05-10T12:50:01;18.10;99.90
14769;DHT22;7476;49.404;11.152;2023-05-10T12:52:29;18.50;99.90
14769;DHT22;7476;49.404;11.152;2023-05-10T12:54:57;18.90;99.90
14769;DHT22;7476;49.404;11.152;2023-05-10T12:57:23;19.30;99.90
14769;DHT22;7476;49.404;11.152;2023-05-10T12:59:50;19.50;99.90
14769;DHT22;7476;49.404;11.152;2023-05-10T13:02:17;19.40;99.90
14769;DHT22;7476;49.404;11.152;2023-05-10T13:04:44;19.20;99.90
14769;DHT22;7476;49.404;11.152;2023-05-10T13:07:13;19.20;99.90
14769;DHT22;7476;49.404;11.152;2023-05-10T13:09:39;19.10;99.90
14769;DHT22;7476;49.404;11.152;2023-05-10T13:12:06;19.00;99.90
14769;DHT22;7476;49.404;11.152;2023-05-10T13:14:33;18.90;99.90
14769;DHT22;7476;49.404;11.152;2023-05-10T13:17:00;18.70;99.90
14769;DHT22;7476;49.404;11.152;2023-05-10T13:19:26;18.40;99.90
14769;DHT22;7476;49.404;11.152;2023-05-10T13:21:53;18.40;99.90
14769;DHT22;7476;49.404;11.152;2023-05-10T13:24:21;18.60;99.90
14769;DHT22;7476;49.404;11.152;2023-05-10T13:26:47;18.70;99.90
14769;DHT22;7476;49.404;11.152;2023-05-10T13:29:14;18.70;99.90
14769;DHT22;7476;49.404;11.152;2023-05-10T13:31:43;18.70;99.90
14769;DHT22;7476;49.404;11.152;2023-05-10T13:34:10;18.70;99.90
14769;DHT22;7476;49.404;11.152;2023-05-10T13:36:36;18.70;99.90
14769;DHT22;7476;49.404;11.152;2023-05-10T13:39:03;18.60;99.90
14769;DHT22;7476;49.404;11.152;2023-05-10T13:41:32;18.70;99.90
14769;DHT22;7476;49.404;11.152;2023-05-10T13:43:58;18.80;99.90
14769;DHT22;7476;49.404;11.152;2023-05-10T13:46:25;18.90;99.90
14769;DHT22;7476;49.404;11.152;2023-05-10T13:48:52;19.10;99.90
14769;DHT22;7476;49.404;11.152;2023-05-10T13:51:18;19.10;99.90
14769;DHT22;7476;49.404;11.152;2023-05-10T13:53:45;19.40;99.90
14769;DHT22;7476;49.404;11.152;2023-05-10T13:56:12;19.60;99.90
14769;DHT22;7476;49.404;11.152;2023-05-10T13:58:40;19.50;99.90
14769;DHT22;7476;49.404;11.152;2023-05-10T14:01:07;19.10;99.90
14769;DHT22;7476;49.404;11.152;2023-05-10T14:03:34;18.80;99.90
14769;DHT22;7476;49.404;11.152;2023-05-10T14:06:00;18.60;99.90
14769;DHT22;7476;49.404;11.152;2023-05-10T14:08:27;18.40;99.90
14769;DHT22;7476;49.404;11.152;2023-05-10T14:10:54;18.30;99.90
14769;DHT22;7476;49.404;11.152;2023-05-10T14:13:21;18.30;99.90
14769;DHT22;7476;49.404;11.152;2023-05-10T14:15:49;18.50;99.90
14769;DHT22;7476;49.404;11.152;2023-05-10T14:18:16;18.60;99.90
14769;DHT22;7476;49.404;11.152;2023-05-10T14:20:43;18.80;99.90
14769;DHT22;7476;49.404;11.152;2023-05-10T14:23:09;18.70;99.90
14769;DHT22;7476;49.404;11.152;2023-05-10T14:25:36;18.50;99.90
14769;DHT22;7476;49.404;11.152;2023-05-10T14:28:03;18.60;99.90
14769;DHT22;7476;49.404;11.152;2023-05-10T14:30:31;18.70;99.90
14769;DHT22;7476;49.404;11.152;2023-05-10T14:33:01;18.80;99.90
14769;DHT22;7476;49.404;11.152;2023-05-10T14:35:28;18.80;99.90
14769;DHT22;7476;49.404;11.152;2023-05-10T14:37:56;18.50;99.90
14769;DHT22;7476;49.404;11.152;2023-05-10T14:40:23;18.60;99.90
14769;DHT22;7476;49.404;11.152;2023-05-10T14:42:50;18.80;99.90
14769;DHT22;7476;49.404;11.152;2023-05-10T14:45:18;18.90;99.90
14769;DHT22;7476;49.404;11.152;2023-05-10T14:47:45;19.10;99.90
14769;DHT22;7476;49.404;11.152;2023-05-10T14:50:13;19.20;99.90
14769;DHT22;7476;49.404;11.152;2023-05-10T14:52:39;19.20;99.90
14769;DHT22;7476;49.404;11.152;2023-05-10T14:55:07;19.20;99.90
14769;DHT22;7476;49.404;11.152;2023-05-10T14:57:34;19.10;99.90
14769;DHT22;7476;49.404;11.152;2023-05-10T15:00:01;18.90;99.90
14769;DHT22;7476;49.404;11.152;2023-05-10T15:02:27;19.00;99.90
14769;DHT22;7476;49.404;11.152;2023-05-10T15:04:54;18.80;99.90
14769;DHT22;7476;49.404;11.152;2023-05-10T15:07:22;19.10;99.90
14769;DHT22;7476;49.404;11.152;2023-05-10T15:09:50;19.00;99.90
14769;DHT22;7476;49.404;11.152;2023-05-10T15:12:17;18.80;99.90
14769;DHT22;7476;49.404;11.152;2023-05-10T15:14:43;18.80;99.90
14769;DHT22;7476;49.404;11.152;2023-05-10T15:17:10;18.90;99.90
14769;DHT22;7476;49.404;11.152;2023-05-10T15:19:37;18.90;99.90
14769;DHT22;7476;49.404;11.152;2023-05-10T15:22:04;18.70;99.90
14769;DHT22;7476;49.404;11.152;2023-05-10T15:24:33;18.60;99.90
14769;DHT22;7476;49.404;11.152;2023-05-10T15:26:59;18.20;99.90
14769;DHT22;7476;49.404;11.152;2023-05-10T15:29:26;17.70;99.90
14769;DHT22;7476;49.404;11.152;2023-05-10T15:31:53;17.50;99.90
14769;DHT22;7476;49.404;11.152;2023-05-10T15:34:19;17.50;99.90
14769;DHT22;7476;49.404;11.152;2023-05-10T15:36:46;17.60;99.90
14769;DHT22;7476;49.404;11.152;2023-05-10T15:39:13;17.80;99.90